createdAt,value
2022-09-15T00:01:07.284Z,77.71
2022-09-15T00:03:35.016Z,77.46
2022-09-15T00:06:02.203Z,77.38
2022-09-15T00:08:30.354Z,77.37
2022-09-15T00:11:10.892Z,77.58
2022-09-15T00:13:39.851Z,77.54
2022-09-15T00:16:08.521Z,77.57
2022-09-15T00:18:37.192Z,77.47
2022-09-15T00:21:14.084Z,77.49
2022-09-15T00:23:41.300Z,77.43
2022-09-15T00:26:15.342Z,77.49
2022-09-15T00:28:43.391Z,77.36
2022-09-15T00:31:14.252Z,77.30
2022-09-15T00:33:41.982Z,77.44
2022-09-15T00:36:12.014Z,77.07
2022-09-15T00:38:39.685Z,77.32
2022-09-15T00:41:08.901Z,77.33
2022-09-15T00:44:01.602Z,77.50
2022-09-15T00:46:39.754Z,77.36
2022-09-15T00:49:16.563Z,77.27
2022-09-15T00:52:08.655Z,77.32
2022-09-15T00:54:47.719Z,77.28
2022-09-15T00:57:28.655Z,77.35
2022-09-15T00:59:57.306Z,77.18
2022-09-15T01:02:35.499Z,77.53
2022-09-15T01:05:07.601Z,77.15
2022-09-15T01:08:03.557Z,77.04
2022-09-15T01:10:34.688Z,77.18
2022-09-15T01:13:04.717Z,77.19
2022-09-15T01:15:57.883Z,77.34
2022-09-15T01:18:37.193Z,77.33
2022-09-15T01:21:21.347Z,77.19
2022-09-15T01:23:58.939Z,77.10
2022-09-15T01:27:30.574Z,76.90
2022-09-15T01:30:10.421Z,77.33
2022-09-15T01:33:05.430Z,77.18
2022-09-15T01:36:06.268Z,77.30
2022-09-15T01:39:01.162Z,77.53
2022-09-15T01:41:37.894Z,77.14
2022-09-15T01:44:22.494Z,77.44
2022-09-15T01:46:54.871Z,77.14
2022-09-15T01:49:28.311Z,77.28
2022-09-15T01:51:55.556Z,77.14
2022-09-15T01:54:28.381Z,77.20
2022-09-15T01:56:56.391Z,77.28
2022-09-15T01:59:23.540Z,77.19
2022-09-15T02:02:02.857Z,76.93
2022-09-15T02:05:06.547Z,77.69
2022-09-15T02:07:39.395Z,77.38
2022-09-15T02:10:15.554Z,77.52
2022-09-15T02:12:52.000Z,77.61
2022-09-15T02:15:43.864Z,77.42
2022-09-15T02:18:14.885Z,77.42
2022-09-15T02:20:52.566Z,77.44
2022-09-15T02:23:30.850Z,77.34
2022-09-15T02:26:06.011Z,77.00
2022-09-15T02:28:37.111Z,77.04
2022-09-15T02:31:07.957Z,77.23
2022-09-15T02:33:40.838Z,77.36
2022-09-15T02:36:11.185Z,77.30
2022-09-15T02:38:46.572Z,77.27
2022-09-15T02:41:14.737Z,77.37
2022-09-15T02:43:49.464Z,76.85
2022-09-15T02:46:20.245Z,77.12
2022-09-15T02:48:47.828Z,77.18
2022-09-15T02:51:16.680Z,76.94
2022-09-15T02:53:44.786Z,76.78
2022-09-15T02:56:12.079Z,77.08
2022-09-15T02:58:39.228Z,77.04
2022-09-15T03:01:08.180Z,76.96
2022-09-15T03:03:37.904Z,77.04
2022-09-15T03:06:18.068Z,76.75
2022-09-15T03:08:47.868Z,76.77
2022-09-15T03:11:16.220Z,76.97
2022-09-15T03:13:43.345Z,77.01
2022-09-15T03:16:12.577Z,77.11
2022-09-15T03:18:40.012Z,77.26
2022-09-15T03:21:09.919Z,77.25
2022-09-15T03:23:37.167Z,77.17
2022-09-15T03:26:05.922Z,77.01
2022-09-15T03:28:33.012Z,77.38
2022-09-15T03:31:00.139Z,77.28
2022-09-15T03:33:27.375Z,76.98
2022-09-15T03:35:54.436Z,77.11
2022-09-15T03:38:22.148Z,77.28
2022-09-15T03:41:03.033Z,77.43
2022-09-15T03:43:31.352Z,77.37
2022-09-15T03:45:59.584Z,77.60
2022-09-15T03:48:27.861Z,77.65
2022-09-15T03:50:54.913Z,77.66
2022-09-15T03:53:22.526Z,77.53
2022-09-15T03:55:49.961Z,77.39
2022-09-15T03:58:18.645Z,77.49
2022-09-15T04:00:46.808Z,77.45
2022-09-15T04:03:14.450Z,77.52
2022-09-15T04:05:44.827Z,77.63
2022-09-15T04:08:13.386Z,77.35
2022-09-15T04:10:41.341Z,77.47
2022-09-15T04:13:08.844Z,77.45
2022-09-15T04:15:36.098Z,77.66
2022-09-15T04:18:05.012Z,77.86
2022-09-15T04:20:32.306Z,77.73
2022-09-15T04:22:59.485Z,77.89
2022-09-15T04:25:28.033Z,77.75
2022-09-15T04:27:56.326Z,77.72
2022-09-15T04:30:23.701Z,77.89
2022-09-15T04:32:51.935Z,77.83
2022-09-15T04:35:19.023Z,77.83
2022-09-15T04:37:46.111Z,77.64
2022-09-15T04:40:13.248Z,77.65
2022-09-15T04:42:40.329Z,77.74
2022-09-15T04:45:08.001Z,77.73
2022-09-15T04:47:35.054Z,77.96
2022-09-15T04:50:02.246Z,77.93
2022-09-15T04:52:32.768Z,77.83
2022-09-15T04:55:00.604Z,77.63
2022-09-15T04:57:27.878Z,77.68
2022-09-15T04:59:54.888Z,77.77
2022-09-15T05:02:22.050Z,77.94
2022-09-15T05:04:50.275Z,78.02
2022-09-15T05:07:18.686Z,77.95
2022-09-15T05:09:45.964Z,78.19
2022-09-15T05:12:13.113Z,78.07
2022-09-15T05:14:40.126Z,77.96
2022-09-15T05:17:07.085Z,77.91
2022-09-15T05:19:34.326Z,77.86
2022-09-15T05:22:01.365Z,77.53
2022-09-15T05:24:28.490Z,77.58
2022-09-15T05:26:55.583Z,77.59
2022-09-15T05:29:22.771Z,77.67
2022-09-15T05:31:49.831Z,77.59
2022-09-15T05:34:16.978Z,77.55
2022-09-15T05:36:44.144Z,77.90
2022-09-15T05:39:11.213Z,78.05
2022-09-15T05:41:38.257Z,78.06
2022-09-15T05:44:05.373Z,77.85
2022-09-15T05:46:32.677Z,77.94
2022-09-15T05:48:59.760Z,77.65
2022-09-15T05:51:26.824Z,77.68
2022-09-15T05:53:53.759Z,77.71
2022-09-15T05:56:20.838Z,77.88
2022-09-15T05:58:49.103Z,77.36
2022-09-15T06:01:27.888Z,77.51
2022-09-15T06:03:56.045Z,77.56
2022-09-15T06:06:24.604Z,77.43
2022-09-15T06:08:58.154Z,77.32
2022-09-15T06:11:33.876Z,77.32
2022-09-15T06:14:03.297Z,77.03
2022-09-15T06:16:33.461Z,77.23
2022-09-15T06:19:03.819Z,77.24
2022-09-15T06:21:32.543Z,77.25
2022-09-15T06:24:03.455Z,76.95
2022-09-15T06:26:30.843Z,76.86
2022-09-15T06:29:00.613Z,77.29
2022-09-15T06:31:29.666Z,77.17
2022-09-15T06:33:57.969Z,76.82
2022-09-15T06:36:28.168Z,76.80
2022-09-15T06:38:56.327Z,76.93
2022-09-15T06:41:23.712Z,76.93
2022-09-15T06:43:51.025Z,76.67
2022-09-15T06:46:21.089Z,76.11
2022-09-15T06:48:48.977Z,75.74
2022-09-15T06:51:17.752Z,75.83
2022-09-15T06:53:45.196Z,75.86
2022-09-15T06:56:14.645Z,75.34
2022-09-15T06:58:43.452Z,75.05
2022-09-15T07:01:15.081Z,75.40
2022-09-15T07:03:44.311Z,75.30
2022-09-15T07:06:15.011Z,75.23
2022-09-15T07:08:42.480Z,74.56
2022-09-15T07:11:10.451Z,74.89
2022-09-15T07:13:37.945Z,75.38
2022-09-15T07:16:08.028Z,75.46
2022-09-15T07:18:39.712Z,74.70
2022-09-15T07:21:12.664Z,74.79
2022-09-15T07:23:40.216Z,74.67
2022-09-15T07:26:17.753Z,74.44
2022-09-15T07:28:47.304Z,73.65
2022-09-15T07:31:17.833Z,73.37
2022-09-15T07:33:48.157Z,73.07
2022-09-15T07:36:15.685Z,72.13
2022-09-15T07:38:48.209Z,72.39
2022-09-15T07:41:21.034Z,72.45
2022-09-15T07:43:49.480Z,72.67
2022-09-15T07:46:18.195Z,72.37
2022-09-15T07:48:49.885Z,72.21
2022-09-15T07:51:17.688Z,72.20
2022-09-15T07:53:46.629Z,71.85
2022-09-15T07:56:13.925Z,72.12
2022-09-15T07:58:41.018Z,72.01
2022-09-15T08:01:14.889Z,72.03
2022-09-15T08:03:43.931Z,72.16
2022-09-15T08:06:11.688Z,71.69
2022-09-15T08:08:40.003Z,71.13
2022-09-15T08:11:17.684Z,71.30
2022-09-15T08:13:47.673Z,70.83
2022-09-15T08:16:17.164Z,70.22
2022-09-15T08:18:44.801Z,70.55
2022-09-15T08:21:14.475Z,70.17
2022-09-15T08:23:41.708Z,70.22
2022-09-15T08:26:14.103Z,70.63
2022-09-15T08:28:42.496Z,70.92
2022-09-15T08:31:12.806Z,70.40
2022-09-15T08:33:44.784Z,70.04
2022-09-15T08:36:13.586Z,69.83
2022-09-15T08:38:41.633Z,70.09
2022-09-15T08:41:17.483Z,70.02
2022-09-15T08:44:16.856Z,70.50
2022-09-15T08:46:53.934Z,69.90
2022-09-15T08:49:52.928Z,69.92
2022-09-15T08:52:28.779Z,69.77
2022-09-15T08:54:58.207Z,69.73
2022-09-15T08:57:26.295Z,69.81
2022-09-15T08:59:55.006Z,70.29
2022-09-15T09:02:58.423Z,70.50
2022-09-15T09:05:41.762Z,70.77
2022-09-15T09:08:39.717Z,71.06
2022-09-15T09:11:24.621Z,71.37
2022-09-15T09:14:35.488Z,71.09
2022-09-15T09:17:21.331Z,71.20
2022-09-15T09:19:55.606Z,70.84
2022-09-15T09:22:32.001Z,71.10
2022-09-15T09:25:11.699Z,71.17
2022-09-15T09:27:43.629Z,70.99
2022-09-15T09:30:17.465Z,71.05
2022-09-15T09:32:51.283Z,71.31
2022-09-15T09:35:33.746Z,71.17
2022-09-15T09:38:02.640Z,71.07
2022-09-15T09:40:31.793Z,71.13
2022-09-15T09:43:01.097Z,71.33
2022-09-15T09:45:28.088Z,71.04
2022-09-15T09:48:01.817Z,70.98
2022-09-15T09:50:39.467Z,70.75
2022-09-15T09:53:30.032Z,70.62
2022-09-15T09:56:12.156Z,70.99
2022-09-15T09:58:39.315Z,70.59
2022-09-15T10:01:20.791Z,70.27
2022-09-15T10:03:47.935Z,70.26
2022-09-15T10:06:22.319Z,70.51
2022-09-15T10:08:56.085Z,70.91
2022-09-15T10:11:40.101Z,71.14
2022-09-15T10:14:07.321Z,70.69
2022-09-15T10:16:34.451Z,70.73
2022-09-15T10:19:02.163Z,70.72
2022-09-15T10:21:29.211Z,70.45
2022-09-15T10:23:56.191Z,69.95
2022-09-15T10:26:34.770Z,70.21
2022-09-15T10:29:19.525Z,70.35
2022-09-15T10:31:46.787Z,69.64
2022-09-15T10:34:32.545Z,69.58
2022-09-15T10:37:31.574Z,68.26
2022-09-15T10:40:01.410Z,69.00
2022-09-15T10:42:53.010Z,69.39
2022-09-15T10:45:23.081Z,69.34
2022-09-15T10:48:20.973Z,68.76
2022-09-15T10:50:56.241Z,68.85
2022-09-15T10:53:39.038Z,68.48
2022-09-15T10:56:33.233Z,69.10
2022-09-15T10:59:13.082Z,68.65
2022-09-15T11:02:21.681Z,69.29
2022-09-15T11:05:11.143Z,68.84
2022-09-15T11:07:45.387Z,68.51
2022-09-15T11:10:32.399Z,68.44
2022-09-15T11:13:29.465Z,68.41
2022-09-15T11:16:11.956Z,68.58
2022-09-15T11:19:21.601Z,68.37
2022-09-15T11:21:55.035Z,68.63
2022-09-15T11:24:41.032Z,68.68
2022-09-15T11:27:33.430Z,68.62
2022-09-15T11:30:20.464Z,68.54
2022-09-15T11:33:01.571Z,68.66
2022-09-15T11:35:53.987Z,69.18
2022-09-15T11:38:20.999Z,69.03
2022-09-15T11:40:59.367Z,69.24
2022-09-15T11:43:46.301Z,69.02
2022-09-15T11:46:25.929Z,68.88
2022-09-15T11:49:06.153Z,69.06
2022-09-15T11:51:43.136Z,69.24
2022-09-15T11:54:28.207Z,69.36
2022-09-15T11:57:00.294Z,69.53
2022-09-15T12:00:13.876Z,69.02
2022-09-15T12:03:02.139Z,68.96
2022-09-15T12:05:40.050Z,69.49
2022-09-15T12:08:16.946Z,69.16
2022-09-15T12:10:46.659Z,68.97
2022-09-15T12:13:18.833Z,69.38
2022-09-15T12:15:47.953Z,69.47
2022-09-15T12:18:46.668Z,69.41
2022-09-15T12:21:30.418Z,69.43
2022-09-15T12:24:07.934Z,69.71
2022-09-15T12:26:35.574Z,69.58
2022-09-15T12:29:23.809Z,69.46
2022-09-15T12:32:29.875Z,69.82
2022-09-15T12:35:13.500Z,69.53
2022-09-15T12:37:46.490Z,69.11
2022-09-15T12:40:37.875Z,69.03
2022-09-15T12:43:25.790Z,69.01
2022-09-15T12:46:00.005Z,69.20
2022-09-15T12:48:36.795Z,69.43
2022-09-15T12:51:07.555Z,68.90
2022-09-15T12:53:41.654Z,69.10
2022-09-15T12:56:41.980Z,69.52
2022-09-15T12:59:15.154Z,69.76
2022-09-15T13:01:49.171Z,69.89
2022-09-15T13:04:45.057Z,70.06
2022-09-15T13:07:21.199Z,69.93
2022-09-15T13:09:59.117Z,69.65
2022-09-15T13:12:32.832Z,69.79
2022-09-15T13:15:03.928Z,69.93
2022-09-15T13:17:33.682Z,69.60
2022-09-15T13:20:10.140Z,69.25
2022-09-15T13:22:44.575Z,69.00
2022-09-15T13:25:13.895Z,68.79
2022-09-15T13:27:46.231Z,68.42
2022-09-15T13:30:36.223Z,68.79
2022-09-15T13:39:37.105Z,67.60
2022-09-15T13:42:18.993Z,67.41
2022-09-15T13:45:07.868Z,67.16
2022-09-15T13:47:50.439Z,66.84
2022-09-15T13:50:24.076Z,67.58
2022-09-15T13:53:12.921Z,66.99
2022-09-15T13:55:43.521Z,67.09
2022-09-15T14:01:05.827Z,66.25
2022-09-15T14:03:46.227Z,66.06
2022-09-15T14:06:33.845Z,66.50
2022-09-15T14:09:27.632Z,65.84
2022-09-15T14:12:00.436Z,66.31
2022-09-15T14:14:27.429Z,65.84
2022-09-15T14:16:56.702Z,65.76
2022-09-15T14:19:35.513Z,66.00
2022-09-15T14:22:20.540Z,65.91
2022-09-15T14:24:48.091Z,66.12
2022-09-15T14:27:26.694Z,66.25
2022-09-15T14:29:55.464Z,66.20
2022-09-15T14:32:22.700Z,66.19
2022-09-15T14:34:51.286Z,66.63
2022-09-15T14:37:20.963Z,66.39
2022-09-15T14:39:56.540Z,66.71
2022-09-15T14:42:33.979Z,66.58
2022-09-15T14:48:15.654Z,67.50
2022-09-15T14:50:45.117Z,67.39
2022-09-15T14:53:20.534Z,67.62
2022-09-15T14:56:00.611Z,68.11
2022-09-15T14:58:38.722Z,68.43
2022-09-15T15:01:33.098Z,68.09
2022-09-15T15:04:03.037Z,68.64
2022-09-15T15:06:58.916Z,69.40
2022-09-15T15:09:48.994Z,68.97
2022-09-15T15:12:25.393Z,68.79
2022-09-15T15:14:55.510Z,68.44
2022-09-15T15:17:35.913Z,68.88
2022-09-15T15:20:06.097Z,68.43
2022-09-15T15:22:33.689Z,67.99
2022-09-15T15:25:01.413Z,68.39
2022-09-15T15:27:34.515Z,68.66
2022-09-15T15:30:26.724Z,68.39
2022-09-15T15:32:55.216Z,68.49
2022-09-15T15:35:22.818Z,68.09
2022-09-15T15:38:04.939Z,68.67
2022-09-15T15:40:34.401Z,68.27
2022-09-15T15:43:03.631Z,67.93
2022-09-15T15:45:34.015Z,67.62
2022-09-15T15:48:03.321Z,67.42
2022-09-15T15:50:32.930Z,67.25
2022-09-15T15:53:01.080Z,67.08
2022-09-15T15:55:38.429Z,66.91
2022-09-15T15:58:06.163Z,66.76
2022-09-15T16:00:44.900Z,66.61
2022-09-15T16:03:14.967Z,66.23
2022-09-15T16:05:45.427Z,66.41
2022-09-15T16:08:29.038Z,66.02
2022-09-15T16:10:57.401Z,66.02
2022-09-15T16:13:25.308Z,66.04
2022-09-15T16:16:00.422Z,66.23
2022-09-15T16:18:29.034Z,65.51
2022-09-15T16:20:56.066Z,66.00
2022-09-15T16:23:23.678Z,66.34
2022-09-15T16:26:05.645Z,66.38
2022-09-15T16:28:32.925Z,66.15
2022-09-15T16:31:00.206Z,66.27
2022-09-15T16:33:27.450Z,66.23
2022-09-15T16:36:09.106Z,66.58
2022-09-15T16:38:36.901Z,66.22
2022-09-15T16:41:10.623Z,66.55
2022-09-15T16:43:37.715Z,66.38
2022-09-15T16:46:06.438Z,66.13
2022-09-15T16:48:34.420Z,66.58
2022-09-15T16:51:23.032Z,66.88
2022-09-15T16:53:51.207Z,66.79
2022-09-15T16:56:19.350Z,66.92
2022-09-15T16:58:46.358Z,66.73
2022-09-15T17:01:21.497Z,67.22
2022-09-15T17:03:48.791Z,67.60
2022-09-15T17:06:17.993Z,67.64
2022-09-15T17:08:45.726Z,67.60
2022-09-15T17:11:16.826Z,67.42
2022-09-15T17:13:45.374Z,67.22
2022-09-15T17:16:15.013Z,67.32
2022-09-15T17:18:42.229Z,67.35
2022-09-15T17:21:12.999Z,67.39
2022-09-15T17:23:43.274Z,67.48
2022-09-15T17:26:13.057Z,67.50
2022-09-15T17:28:41.215Z,67.89
2022-09-15T17:31:24.744Z,67.69
2022-09-15T17:33:53.053Z,67.74
2022-09-15T17:36:20.722Z,67.74
2022-09-15T17:38:50.863Z,67.82
2022-09-15T17:41:20.556Z,67.97
2022-09-15T17:43:48.501Z,67.48
2022-09-15T17:46:18.837Z,68.10
2022-09-15T17:48:46.643Z,68.17
2022-09-15T17:51:17.490Z,68.33
2022-09-15T17:53:48.132Z,68.46
2022-09-15T17:56:15.570Z,68.59
2022-09-15T17:58:45.564Z,69.04
2022-09-15T18:01:14.088Z,68.82
2022-09-15T18:03:43.851Z,69.16
2022-09-15T18:06:11.768Z,69.08
2022-09-15T18:08:39.133Z,68.86
2022-09-15T18:11:07.336Z,69.02
2022-09-15T18:13:34.852Z,68.89
2022-09-15T18:16:13.076Z,69.16
2022-09-15T18:18:41.100Z,68.93
2022-09-15T18:21:12.217Z,69.32
2022-09-15T18:23:42.514Z,69.32
2022-09-15T18:26:09.834Z,69.18
2022-09-15T18:28:37.232Z,69.05
2022-09-15T18:31:04.657Z,69.12
2022-09-15T18:33:32.018Z,69.26
2022-09-15T18:35:59.253Z,69.21
2022-09-15T18:38:27.054Z,69.95
2022-09-15T18:40:56.654Z,69.60
2022-09-15T18:43:25.505Z,69.56
2022-09-15T18:45:57.960Z,69.70
2022-09-15T18:48:25.430Z,69.43
2022-09-15T18:50:54.631Z,69.45
2022-09-15T18:53:21.714Z,69.50
2022-09-15T18:55:49.293Z,69.48
2022-09-15T18:58:17.840Z,69.50
2022-09-15T19:00:45.887Z,69.77
2022-09-15T19:03:14.450Z,69.80
2022-09-15T19:05:41.871Z,69.83
2022-09-15T19:08:09.653Z,69.76
2022-09-15T19:10:39.690Z,70.04
2022-09-15T19:13:06.907Z,69.87
2022-09-15T19:15:34.724Z,69.98
2022-09-15T19:18:02.180Z,69.91
2022-09-15T19:20:29.718Z,69.95
2022-09-15T19:22:57.982Z,69.96
2022-09-15T19:25:25.195Z,70.16
2022-09-15T19:27:52.649Z,70.45
2022-09-15T19:30:19.862Z,70.90
2022-09-15T19:32:47.022Z,71.20
2022-09-15T19:35:14.458Z,71.49
2022-09-15T19:37:42.682Z,71.94
2022-09-15T19:40:13.354Z,71.77
2022-09-15T19:42:42.431Z,71.51
2022-09-15T19:45:11.482Z,71.60
2022-09-15T19:47:39.868Z,71.66
2022-09-15T19:50:09.284Z,71.63
2022-09-15T19:52:36.816Z,71.63
2022-09-15T19:55:06.878Z,71.60
2022-09-15T19:57:34.168Z,71.29
2022-09-15T20:00:01.510Z,71.02
2022-09-15T20:02:32.229Z,71.16
2022-09-15T20:04:59.404Z,71.10
2022-09-15T20:07:26.392Z,71.31
2022-09-15T20:09:53.535Z,71.24
2022-09-15T20:14:52.784Z,71.26
2022-09-15T20:17:19.990Z,71.36
2022-09-15T20:19:47.219Z,71.22
2022-09-15T20:22:14.777Z,71.29
2022-09-15T20:24:41.909Z,71.72
2022-09-15T20:27:09.103Z,71.28
2022-09-15T20:29:36.270Z,71.04
2022-09-15T20:32:03.397Z,71.29
2022-09-15T20:34:30.561Z,71.25
2022-09-15T20:36:58.047Z,71.05
2022-09-15T20:39:25.995Z,71.06
2022-09-15T20:41:53.140Z,70.95
2022-09-15T20:44:20.263Z,70.91
2022-09-15T20:46:47.644Z,70.92
2022-09-15T20:49:14.814Z,71.03
2022-09-15T20:51:42.390Z,71.00
2022-09-15T20:54:11.021Z,71.04
2022-09-15T20:56:38.372Z,71.26
2022-09-15T20:59:06.361Z,71.17
2022-09-15T21:01:36.907Z,71.22
2022-09-15T21:04:05.982Z,71.71
2022-09-15T21:06:35.728Z,71.51
2022-09-15T21:09:03.063Z,71.18
2022-09-15T21:11:30.695Z,71.42
2022-09-15T21:13:58.856Z,71.49
2022-09-15T21:16:28.674Z,71.25
2022-09-15T21:18:57.658Z,71.24
2022-09-15T21:21:27.501Z,71.31
2022-09-15T21:23:56.865Z,71.31
2022-09-15T21:26:26.330Z,70.88
2022-09-15T21:28:54.789Z,71.27
2022-09-15T21:31:26.377Z,71.25
2022-09-15T21:33:54.632Z,71.02
2022-09-15T21:36:27.111Z,71.04
2022-09-15T21:38:56.508Z,71.11
2022-09-15T21:41:31.921Z,71.09
2022-09-15T21:44:00.812Z,71.17
2022-09-15T21:46:30.512Z,71.10
2022-09-15T21:48:59.563Z,71.38
2022-09-15T21:51:28.871Z,71.14
2022-09-15T21:53:57.927Z,71.63
2022-09-15T21:56:25.893Z,71.86
2022-09-15T21:58:53.163Z,71.56
2022-09-15T22:01:23.665Z,71.81
2022-09-15T22:04:01.814Z,71.69
2022-09-15T22:06:32.134Z,71.89
2022-09-15T22:09:23.246Z,71.86
2022-09-15T22:11:50.360Z,71.83
2022-09-15T22:14:17.507Z,71.48
2022-09-15T22:16:44.729Z,72.01
2022-09-15T22:19:12.960Z,71.71
2022-09-15T22:21:42.166Z,71.65
2022-09-15T22:24:11.552Z,71.46
2022-09-15T22:26:39.827Z,71.74
2022-09-15T22:29:07.137Z,71.52
2022-09-15T22:31:35.380Z,71.40
2022-09-15T22:34:03.221Z,71.73
2022-09-15T22:36:31.482Z,71.67
2022-09-15T22:39:04.520Z,71.66
2022-09-15T22:41:37.514Z,71.95
2022-09-15T22:44:05.993Z,71.56
2022-09-15T22:46:33.255Z,71.46
2022-09-15T22:49:00.499Z,71.78
2022-09-15T22:51:27.938Z,71.66
2022-09-15T22:53:57.510Z,71.42
2022-09-15T22:56:26.537Z,71.71
2022-09-15T22:58:55.057Z,71.60
2022-09-15T23:01:27.815Z,71.94
2022-09-15T23:03:57.639Z,71.78
2022-09-15T23:06:27.045Z,71.87
2022-09-15T23:08:59.784Z,71.77
2022-09-15T23:11:28.733Z,71.76
2022-09-15T23:13:56.500Z,72.06
2022-09-15T23:16:25.190Z,71.93
2022-09-15T23:18:53.703Z,71.89
2022-09-15T23:21:21.157Z,71.86
2022-09-15T23:23:49.383Z,71.63
2022-09-15T23:26:18.933Z,71.88
2022-09-15T23:28:46.787Z,72.23
2022-09-15T23:31:14.615Z,72.35
2022-09-15T23:33:42.762Z,71.99
2022-09-15T23:36:13.011Z,72.10
2022-09-15T23:38:41.909Z,71.86
2022-09-15T23:41:10.332Z,72.32
2022-09-15T23:43:37.567Z,72.50
2022-09-15T23:46:05.232Z,71.80
2022-09-15T23:48:32.709Z,72.03
2022-09-15T23:51:00.274Z,72.11
2022-09-15T23:53:27.971Z,71.88
2022-09-15T23:55:55.111Z,72.04
2022-09-15T23:58:22.241Z,71.85
